Time;durP1;ratioP1;P1;durP2;ratioP2;P2;SDS_P1;SDS_P2;PMS_P1;PMS_P2;Temp;Humidity;BMP_temperature;BMP_pressure;BME280_temperature;BME280_humidity;BME280_pressure;Samples;Min_cycle;Max_cycle;Signal;HPM_P1;HPM_P2
2022/04/26 03:36:59;;;;;;;;;;;9.40;99.90;;;;;;5022432;28;19948;-71
2022/04/26 03:39:26;;;;;;;;;;;9.40;99.90;;;;;;5024816;28;19925;-72
2022/04/26 03:41:52;;;;;;;;;;;9.30;99.90;;;;;;5034828;28;19928;-70
2022/04/26 03:44:19;;;;;;;;;;;9.30;99.90;;;;;;5027997;28;19940;-70
2022/04/26 03:46:45;;;;;;;;;;;9.30;99.90;;;;;;5030315;28;19930;-70
2022/04/26 03:49:12;;;;;;;;;;;9.30;99.90;;;;;;5031306;28;19986;-70
2022/04/26 03:51:39;;;;;;;;;;;9.30;99.90;;;;;;5030978;28;20163;-71
2022/04/26 03:54:06;;;;;;;;;;;9.30;99.90;;;;;;5029728;28;19994;-71
2022/04/26 03:56:32;;;;;;;;;;;9.30;99.90;;;;;;5031129;28;19946;-71
2022/04/26 03:58:59;;;;;;;;;;;9.30;99.90;;;;;;5029880;27;19925;-71
2022/04/26 04:01:25;;;;;;;;;;;9.30;99.90;;;;;;5028334;28;20006;-70
2022/04/26 04:03:52;;;;;;;;;;;9.30;99.90;;;;;;5027250;28;20386;-70
2022/04/26 04:06:18;;;;;;;;;;;9.20;99.90;;;;;;5024173;28;19978;-70
2022/04/26 04:08:46;;;;;;;;;;;9.20;99.90;;;;;;5023654;28;19972;-69
2022/04/26 04:11:13;;;;;;;;;;;9.20;99.90;;;;;;5023347;28;19994;-69
2022/04/26 04:13:40;;;;;;;;;;;9.20;99.90;;;;;;5026544;28;20052;-70
2022/04/26 04:16:06;;;;;;;;;;;9.20;99.90;;;;;;5026903;28;20032;-71
2022/04/26 04:21:17;;;;;;;;;;;9.20;99.90;;;;;;5022813;28;19971;-69
2022/04/26 04:23:44;;;;;;;;;;;9.10;99.90;;;;;;5023162;28;20029;-69
2022/04/26 04:26:12;;;;;;;;;;;9.00;99.90;;;;;;5024026;28;19933;-70
2022/04/26 04:28:38;;;;;;;;;;;9.00;99.90;;;;;;5024926;28;19962;-70
2022/04/26 04:31:05;;;;;;;;;;;9.00;99.90;;;;;;5034054;27;20105;-71
2022/04/26 04:33:31;;;;;;;;;;;8.90;99.90;;;;;;5024125;28;19933;-71
2022/04/26 04:35:58;;;;;;;;;;;9.00;99.90;;;;;;5023368;28;20044;-70
2022/04/26 04:38:26;;;;;;;;;;;9.00;99.90;;;;;;5024171;28;19933;-70
2022/04/26 04:40:53;;;;;;;;;;;9.00;99.90;;;;;;5023771;28;19998;-69
2022/04/26 04:43:21;;;;;;;;;;;9.00;99.90;;;;;;5024398;28;20605;-71
2022/04/26 04:45:48;;;;;;;;;;;8.90;99.90;;;;;;5022268;28;19940;-70
2022/04/26 04:48:14;;;;;;;;;;;9.00;99.90;;;;;;5023197;28;20325;-70
2022/04/26 04:50:41;;;;;;;;;;;8.90;99.90;;;;;;5019636;28;19989;-70
2022/04/26 04:53:07;;;;;;;;;;;8.90;99.90;;;;;;5020792;27;19982;-70
2022/04/26 04:55:34;;;;;;;;;;;9.00;99.90;;;;;;5019379;27;19933;-71
2022/04/26 04:58:00;;;;;;;;;;;9.00;99.90;;;;;;5022879;28;19933;-70
2022/04/26 05:00:28;;;;;;;;;;;9.10;99.90;;;;;;5022108;28;19929;-70
2022/04/26 05:02:55;;;;;;;;;;;9.20;99.90;;;;;;5020730;28;19925;-70
2022/04/26 05:05:21;;;;;;;;;;;9.20;99.90;;;;;;5025094;28;19928;-70
2022/04/26 05:07:50;;;;;;;;;;;9.20;99.90;;;;;;5020259;28;19933;-63
2022/04/26 05:10:16;;;;;;;;;;;9.20;99.90;;;;;;5021582;28;19937;-69
2022/04/26 05:12:43;;;;;;;;;;;9.20;99.90;;;;;;5016502;28;19940;-71
2022/04/26 05:15:10;;;;;;;;;;;9.10;99.90;;;;;;5015369;28;19996;-69
2022/04/26 05:17:37;;;;;;;;;;;9.00;99.90;;;;;;5021182;28;19936;-77
2022/04/26 05:20:05;;;;;;;;;;;9.00;99.90;;;;;;5020452;28;20478;-72
2022/04/26 05:22:31;;;;;;;;;;;9.00;99.90;;;;;;5022528;28;20052;-71
2022/04/26 05:24:57;;;;;;;;;;;9.10;99.90;;;;;;5023221;28;19929;-73
2022/04/26 05:27:24;;;;;;;;;;;9.00;99.90;;;;;;5019448;27;20273;-71
2022/04/26 05:29:51;;;;;;;;;;;9.10;99.90;;;;;;5017629;28;20069;-71
2022/04/26 05:32:19;;;;;;;;;;;9.10;99.90;;;;;;5053832;27;20362;-73
2022/04/26 05:34:47;;;;;;;;;;;9.20;99.90;;;;;;5020516;27;19957;-75
2022/04/26 05:37:13;;;;;;;;;;;9.20;99.90;;;;;;5021114;28;19933;-73
2022/04/26 05:39:41;;;;;;;;;;;9.30;99.90;;;;;;5021376;28;19973;-70
2022/04/26 05:42:08;;;;;;;;;;;9.30;99.90;;;;;;5031058;28;19925;-68
2022/04/26 05:44:38;;;;;;;;;;;9.30;99.90;;;;;;5031259;28;19933;-69
2022/04/26 05:47:05;;;;;;;;;;;9.40;99.90;;;;;;5030411;28;19959;-69
2022/04/26 05:49:31;;;;;;;;;;;9.50;99.90;;;;;;5027436;28;19936;-68
2022/04/26 05:51:59;;;;;;;;;;;9.60;99.90;;;;;;5019041;28;20037;-69
2022/04/26 05:54:26;;;;;;;;;;;9.60;99.90;;;;;;5027431;28;19945;-67
2022/04/26 05:56:53;;;;;;;;;;;9.70;99.90;;;;;;5036782;28;19981;-69
2022/04/26 05:59:20;;;;;;;;;;;9.70;99.90;;;;;;5027112;28;19925;-70
2022/04/26 06:01:46;;;;;;;;;;;9.80;99.90;;;;;;5023025;28;19993;-70
2022/04/26 06:04:13;;;;;;;;;;;9.90;99.90;;;;;;5024737;28;19993;-70
2022/04/26 06:06:39;;;;;;;;;;;9.90;99.90;;;;;;5022581;28;19936;-71
2022/04/26 06:09:08;;;;;;;;;;;10.00;99.90;;;;;;5021472;28;20475;-70
2022/04/26 06:11:34;;;;;;;;;;;10.00;99.90;;;;;;5022435;28;19929;-70
2022/04/26 06:14:01;;;;;;;;;;;10.00;99.90;;;;;;5023644;28;19972;-71
2022/04/26 06:16:28;;;;;;;;;;;10.10;99.90;;;;;;5022657;28;19993;-70
2022/04/26 06:18:54;;;;;;;;;;;10.10;99.90;;;;;;5020318;28;19973;-70
2022/04/26 06:21:21;;;;;;;;;;;10.00;99.90;;;;;;5020794;28;20016;-70
2022/04/26 06:23:47;;;;;;;;;;;10.00;99.90;;;;;;5023747;28;19950;-69
2022/04/26 06:26:15;;;;;;;;;;;10.00;99.90;;;;;;5020247;28;19925;-71
2022/04/26 06:28:42;;;;;;;;;;;10.00;99.90;;;;;;5021811;28;19937;-71
2022/04/26 06:31:10;;;;;;;;;;;10.00;99.90;;;;;;5031933;28;20027;-71
2022/04/26 06:33:37;;;;;;;;;;;10.00;99.90;;;;;;5020917;28;19954;-69
2022/04/26 06:36:04;;;;;;;;;;;10.00;99.90;;;;;;5014109;28;19947;-70
2022/04/26 06:38:31;;;;;;;;;;;9.90;99.90;;;;;;5019162;28;19937;-71
2022/04/26 06:40:57;;;;;;;;;;;9.90;99.90;;;;;;5019671;28;20020;-72
2022/04/26 06:43:25;;;;;;;;;;;9.90;99.90;;;;;;5021638;28;19936;-71
2022/04/26 06:45:51;;;;;;;;;;;9.80;99.90;;;;;;5020471;28;19925;-71
2022/04/26 06:48:18;;;;;;;;;;;9.70;99.90;;;;;;5021488;28;19929;-71
2022/04/26 06:50:46;;;;;;;;;;;9.70;99.90;;;;;;5020289;28;20019;-73
2022/04/26 06:53:13;;;;;;;;;;;9.60;99.90;;;;;;5034620;28;20038;-71
2022/04/26 06:55:39;;;;;;;;;;;9.60;99.90;;;;;;5021832;28;19926;-71
2022/04/26 06:58:06;;;;;;;;;;;9.60;99.90;;;;;;5022636;28;19993;-71
2022/04/26 07:00:34;;;;;;;;;;;9.60;99.90;;;;;;5022082;28;19977;-71
2022/04/26 07:03:00;;;;;;;;;;;9.60;99.90;;;;;;5019082;28;19933;-71
2022/04/26 07:05:27;;;;;;;;;;;9.60;99.90;;;;;;5023704;28;20287;-71
2022/04/26 07:07:53;;;;;;;;;;;9.60;99.90;;;;;;5022922;28;20362;-71
2022/04/26 07:10:20;;;;;;;;;;;9.60;99.90;;;;;;5022445;27;19926;-73
2022/04/26 07:12:46;;;;;;;;;;;9.60;99.90;;;;;;5027175;28;20305;-71
2022/04/26 07:15:13;;;;;;;;;;;9.60;99.90;;;;;;5027366;28;20004;-72
2022/04/26 07:17:41;;;;;;;;;;;9.60;99.90;;;;;;5024559;28;20003;-71
2022/04/26 07:20:09;;;;;;;;;;;9.60;99.90;;;;;;5020600;28;19929;-72
2022/04/26 07:22:36;;;;;;;;;;;9.60;99.90;;;;;;5022814;28;20012;-73
2022/04/26 07:25:03;;;;;;;;;;;9.60;99.90;;;;;;5023464;28;19977;-71
2022/04/26 07:27:29;;;;;;;;;;;9.70;99.90;;;;;;5022853;28;20437;-73
2022/04/26 07:29:56;;;;;;;;;;;9.70;99.90;;;;;;5020425;27;19938;-73
2022/04/26 07:34:20;;;;;;;;;;;9.60;99.90;;;;;;5029592;27;20317;-73
2022/04/26 07:35:11;;;;;;;;;;;9.60;99.90;;;;;;5020690;28;19925;-71
2022/04/26 07:37:37;;;;;;;;;;;9.60;99.90;;;;;;5023496;28;19925;-71
2022/04/26 07:40:05;;;;;;;;;;;9.70;99.90;;;;;;5023853;28;19955;-71
2022/04/26 07:42:31;;;;;;;;;;;9.90;99.90;;;;;;5021740;28;19937;-73
2022/04/26 07:44:57;;;;;;;;;;;10.10;99.90;;;;;;5023620;28;19925;-73
2022/04/26 07:47:26;;;;;;;;;;;10.30;99.90;;;;;;5023204;28;19933;-73
2022/04/26 07:49:53;;;;;;;;;;;10.50;99.90;;;;;;5020400;27;20382;-72
2022/04/26 07:52:23;;;;;;;;;;;10.80;99.90;;;;;;5023902;28;19945;-72
2022/04/26 07:54:49;;;;;;;;;;;11.10;99.90;;;;;;5021072;28;19952;-72
2022/04/26 07:57:16;;;;;;;;;;;11.50;99.90;;;;;;5024155;28;20046;-71
2022/04/26 07:59:42;;;;;;;;;;;11.70;99.90;;;;;;5018475;27;19933;-72
2022/04/26 08:02:10;;;;;;;;;;;12.20;99.90;;;;;;5021349;28;19986;-72
2022/04/26 08:04:36;;;;;;;;;;;12.60;99.90;;;;;;5033289;28;19937;-73
2022/04/26 08:07:03;;;;;;;;;;;12.80;99.90;;;;;;5039536;28;19993;-73
2022/04/26 08:09:35;;;;;;;;;;;12.80;99.90;;;;;;5031913;28;19936;-73
2022/04/26 08:12:01;;;;;;;;;;;12.70;99.90;;;;;;5021342;27;20270;-73
2022/04/26 08:14:28;;;;;;;;;;;12.60;99.90;;;;;;5022754;28;19933;-71
2022/04/26 08:16:55;;;;;;;;;;;12.50;99.90;;;;;;5026930;28;19936;-73
2022/04/26 08:19:22;;;;;;;;;;;12.50;99.90;;;;;;5027576;27;20020;-73
2022/04/26 08:21:48;;;;;;;;;;;12.40;99.90;;;;;;5039900;27;19993;-74
2022/04/26 08:29:46;;;;;;;;;;;12.00;99.90;;;;;;5020533;28;20580;-73
2022/04/26 08:32:13;;;;;;;;;;;11.80;99.90;;;;;;5022948;27;19948;-73
2022/04/26 08:34:39;;;;;;;;;;;11.90;99.90;;;;;;5023865;28;20361;-72
2022/04/26 08:37:06;;;;;;;;;;;11.90;99.90;;;;;;5023043;28;19933;-74
2022/04/26 08:39:33;;;;;;;;;;;11.90;99.90;;;;;;5019957;28;19929;-72
2022/04/26 08:42:01;;;;;;;;;;;11.90;99.90;;;;;;5021775;28;19948;-71
2022/04/26 08:44:28;;;;;;;;;;;11.80;99.90;;;;;;5022004;28;19929;-71
2022/04/26 08:52:23;;;;;;;;;;;11.50;99.90;;;;;;5017839;28;20092;-72
2022/04/26 08:54:50;;;;;;;;;;;11.50;99.90;;;;;;5023600;28;20435;-71
2022/04/26 08:57:18;;;;;;;;;;;11.50;99.90;;;;;;5024482;28;19932;-73
2022/04/26 08:59:48;;;;;;;;;;;11.40;99.90;;;;;;5016624;28;19933;-72
2022/04/26 09:02:15;;;;;;;;;;;11.30;99.90;;;;;;5023504;28;20012;-72
2022/04/26 09:04:42;;;;;;;;;;;11.20;99.90;;;;;;5024378;27;19929;-71
2022/04/26 09:07:09;;;;;;;;;;;11.20;99.90;;;;;;5022668;28;20025;-72
2022/04/26 09:09:38;;;;;;;;;;;11.10;99.90;;;;;;5029878;27;19937;-72
2022/04/26 09:12:09;;;;;;;;;;;11.10;99.90;;;;;;5026005;28;19941;-71
2022/04/26 09:14:39;;;;;;;;;;;11.20;99.90;;;;;;5029219;28;19945;-71
2022/04/26 09:17:07;;;;;;;;;;;11.30;99.90;;;;;;5021874;28;19935;-73
2022/04/26 09:19:43;;;;;;;;;;;11.30;99.90;;;;;;5022689;28;19929;-71
2022/04/26 09:22:15;;;;;;;;;;;11.30;99.90;;;;;;5024956;27;19968;-71
2022/04/26 09:24:53;;;;;;;;;;;11.30;99.90;;;;;;5024141;28;19929;-71
2022/04/26 09:27:20;;;;;;;;;;;11.30;99.90;;;;;;5029709;28;19940;-71
2022/04/26 09:29:48;;;;;;;;;;;11.30;99.90;;;;;;5020120;28;20012;-71
2022/04/26 09:32:15;;;;;;;;;;;11.20;99.90;;;;;;5032466;27;19929;-71
2022/04/26 09:34:41;;;;;;;;;;;11.20;99.90;;;;;;5021223;28;20404;-71
2022/04/26 09:37:08;;;;;;;;;;;11.30;99.90;;;;;;5022416;28;19986;-71
2022/04/26 09:39:34;;;;;;;;;;;11.30;99.90;;;;;;5019102;28;21778;-72
2022/04/26 09:42:01;;;;;;;;;;;11.40;99.90;;;;;;5021148;28;19959;-72
2022/04/26 09:44:30;;;;;;;;;;;11.40;99.90;;;;;;5022013;28;19976;-71
2022/04/26 09:46:59;;;;;;;;;;;11.40;99.90;;;;;;5018467;28;20028;-71
2022/04/26 09:49:26;;;;;;;;;;;11.50;99.90;;;;;;5021391;28;19948;-71
2022/04/26 09:51:54;;;;;;;;;;;11.70;99.90;;;;;;5017776;28;20016;-71
2022/04/26 09:54:21;;;;;;;;;;;11.80;99.90;;;;;;5017552;28;19926;-72
2022/04/26 09:56:48;;;;;;;;;;;12.10;99.90;;;;;;5016871;28;20001;-71
2022/04/26 09:59:16;;;;;;;;;;;12.20;99.90;;;;;;5022335;28;19929;-72
2022/04/26 10:01:45;;;;;;;;;;;12.40;99.90;;;;;;5025160;28;19976;-72
2022/04/26 10:04:16;;;;;;;;;;;12.70;99.90;;;;;;5025133;28;19965;-71
2022/04/26 10:06:44;;;;;;;;;;;12.90;99.90;;;;;;5020688;28;19944;-71
2022/04/26 10:09:12;;;;;;;;;;;13.10;99.90;;;;;;5022816;28;19925;-72
2022/04/26 10:11:39;;;;;;;;;;;13.30;99.90;;;;;;5022829;28;20363;-72
2022/04/26 10:14:07;;;;;;;;;;;13.50;99.90;;;;;;5020243;28;19956;-72
2022/04/26 10:16:34;;;;;;;;;;;13.60;99.90;;;;;;5017803;28;20004;-71
2022/04/26 10:19:02;;;;;;;;;;;13.50;99.90;;;;;;5027617;28;19928;-71
2022/04/26 10:21:49;;;;;;;;;;;13.50;99.90;;;;;;5025860;28;19997;-72
2022/04/26 10:24:17;;;;;;;;;;;13.50;99.90;;;;;;5032474;28;19935;-74
2022/04/26 10:26:44;;;;;;;;;;;13.50;99.90;;;;;;5024520;28;19929;-73
2022/04/26 10:29:18;;;;;;;;;;;13.60;99.90;;;;;;5026013;28;20375;-73
2022/04/26 10:31:46;;;;;;;;;;;13.80;99.90;;;;;;5023287;28;19997;-73
2022/04/26 10:34:16;;;;;;;;;;;14.00;99.90;;;;;;5028353;28;19957;-71
2022/04/26 10:36:44;;;;;;;;;;;14.10;99.90;;;;;;5024195;28;19943;-71
2022/04/26 10:39:33;;;;;;;;;;;14.30;99.90;;;;;;5026305;28;19929;-72
2022/04/26 10:42:00;;;;;;;;;;;14.40;99.90;;;;;;5032122;28;19983;-72
2022/04/26 10:44:30;;;;;;;;;;;14.50;99.90;;;;;;5028681;28;19969;-72
2022/04/26 10:47:21;;;;;;;;;;;14.60;99.90;;;;;;5025469;28;20347;-72
2022/04/26 10:49:48;;;;;;;;;;;14.60;99.90;;;;;;5013066;28;19993;-71
2022/04/26 10:52:36;;;;;;;;;;;14.80;99.90;;;;;;5024421;28;19929;-72
2022/04/26 10:55:04;;;;;;;;;;;14.90;99.90;;;;;;5024597;28;19941;-71
2022/04/26 10:57:31;;;;;;;;;;;15.00;99.90;;;;;;5021087;28;19963;-71
2022/04/26 10:59:59;;;;;;;;;;;15.20;99.90;;;;;;5022330;28;20411;-72
2022/04/26 11:02:27;;;;;;;;;;;15.40;99.90;;;;;;5022701;28;20016;-72
2022/04/26 11:04:55;;;;;;;;;;;15.80;99.90;;;;;;5019267;27;19933;-72
2022/04/26 11:07:25;;;;;;;;;;;16.20;99.90;;;;;;5023524;28;19941;-72
2022/04/26 11:09:54;;;;;;;;;;;16.60;99.90;;;;;;5024425;28;19925;-73
2022/04/26 11:12:21;;;;;;;;;;;17.10;99.90;;;;;;5021544;28;19933;-72
2022/04/26 11:14:48;;;;;;;;;;;17.60;99.90;;;;;;5027445;28;19931;-73
2022/04/26 11:17:15;;;;;;;;;;;17.90;99.90;;;;;;5032971;28;19929;-73
2022/04/26 11:19:47;;;;;;;;;;;17.90;99.90;;;;;;5029162;28;19949;-70
2022/04/26 11:22:14;;;;;;;;;;;17.70;99.90;;;;;;5021014;28;19929;-73
2022/04/26 11:30:15;;;;;;;;;;;16.50;99.90;;;;;;5023144;28;19932;-71
2022/04/26 11:32:42;;;;;;;;;;;16.40;99.90;;;;;;5034650;27;19989;-71
2022/04/26 11:35:09;;;;;;;;;;;16.30;99.90;;;;;;5020873;28;19926;-72
2022/04/26 11:37:43;;;;;;;;;;;16.50;99.90;;;;;;5025663;28;19933;-73
2022/04/26 11:40:10;;;;;;;;;;;16.50;99.90;;;;;;5022823;28;19925;-72
2022/04/26 11:42:38;;;;;;;;;;;16.60;99.90;;;;;;5024717;28;19937;-71
2022/04/26 11:45:05;;;;;;;;;;;16.60;99.90;;;;;;5020103;28;20073;-71
2022/04/26 11:47:39;;;;;;;;;;;16.50;99.90;;;;;;5016874;28;20508;-71
2022/04/26 11:50:09;;;;;;;;;;;16.50;99.90;;;;;;5028297;27;20009;-71
2022/04/26 11:52:35;;;;;;;;;;;16.50;99.90;;;;;;5018617;28;19929;-71
2022/04/26 11:55:02;;;;;;;;;;;16.50;99.90;;;;;;5016155;28;19925;-71
2022/04/26 11:57:29;;;;;;;;;;;16.40;99.90;;;;;;5021661;28;19937;-71
2022/04/26 11:59:57;;;;;;;;;;;16.40;99.90;;;;;;5016370;28;19929;-71
2022/04/26 12:02:24;;;;;;;;;;;16.30;99.90;;;;;;5015803;28;19933;-70
2022/04/26 12:04:51;;;;;;;;;;;16.30;99.90;;;;;;5017381;28;19951;-70
2022/04/26 12:07:18;;;;;;;;;;;16.30;99.90;;;;;;5019403;28;19925;-69
2022/04/26 12:09:45;;;;;;;;;;;16.40;99.90;;;;;;5018173;28;19929;-71
2022/04/26 12:12:12;;;;;;;;;;;16.40;99.90;;;;;;5022692;28;20685;-70
2022/04/26 12:14:41;;;;;;;;;;;16.50;99.90;;;;;;5022230;28;19929;-70
2022/04/26 12:17:18;;;;;;;;;;;16.80;99.90;;;;;;5020491;28;20363;-70
2022/04/26 12:19:50;;;;;;;;;;;17.10;99.90;;;;;;5018853;28;19964;-72
2022/04/26 12:22:16;;;;;;;;;;;17.50;99.90;;;;;;5016932;28;19929;-73
2022/04/26 12:24:46;;;;;;;;;;;17.80;99.90;;;;;;5020785;28;19986;-73
2022/04/26 12:27:14;;;;;;;;;;;18.20;99.90;;;;;;5019588;28;19997;-72
2022/04/26 12:29:42;;;;;;;;;;;18.50;99.90;;;;;;5027393;27;20301;-71
2022/04/26 12:32:09;;;;;;;;;;;19.00;99.90;;;;;;5022308;28;20022;-71
2022/04/26 12:34:37;;;;;;;;;;;19.50;99.90;;;;;;5021895;27;19951;-72
2022/04/26 12:37:07;;;;;;;;;;;19.90;99.90;;;;;;5018358;28;21771;-71
2022/04/26 12:39:44;;;;;;;;;;;20.10;99.90;;;;;;5014218;28;20080;-73
2022/04/26 12:42:12;;;;;;;;;;;20.00;99.90;;;;;;5027750;27;20386;-73
2022/04/26 12:44:49;;;;;;;;;;;19.70;99.90;;;;;;5026754;27;20427;-73
2022/04/26 12:52:47;;;;;;;;;;;19.60;99.90;;;;;;5018157;28;20501;-73
2022/04/26 12:55:14;;;;;;;;;;;19.50;99.90;;;;;;5019768;28;20012;-72
2022/04/26 12:57:50;;;;;;;;;;;19.40;99.90;;;;;;5021492;28;19933;-71
2022/04/26 13:00:18;;;;;;;;;;;19.40;99.90;;;;;;5017962;28;19990;-71
2022/04/26 13:02:46;;;;;;;;;;;19.30;99.90;;;;;;5022122;28;19925;-71
2022/04/26 13:05:14;;;;;;;;;;;19.30;99.90;;;;;;5022602;28;20407;-71
2022/04/26 13:07:40;;;;;;;;;;;19.60;99.90;;;;;;5018724;28;20004;-74
2022/04/26 13:10:07;;;;;;;;;;;19.70;99.90;;;;;;5019849;28;19933;-72
2022/04/26 13:12:34;;;;;;;;;;;19.60;99.90;;;;;;5020914;28;19937;-69
2022/04/26 13:15:00;;;;;;;;;;;19.40;99.90;;;;;;5021866;28;19937;-70
2022/04/26 13:17:27;;;;;;;;;;;19.30;99.90;;;;;;5020740;28;19929;-70
2022/04/26 13:19:54;;;;;;;;;;;19.20;99.90;;;;;;5025204;28;19933;-71
2022/04/26 13:22:23;;;;;;;;;;;19.20;99.90;;;;;;5024686;28;19933;-70
2022/04/26 13:24:51;;;;;;;;;;;19.30;99.90;;;;;;5024175;28;20044;-71
2022/04/26 13:27:18;;;;;;;;;;;19.40;99.90;;;;;;5023834;28;19933;-70
2022/04/26 13:29:44;;;;;;;;;;;19.40;99.90;;;;;;5019570;28;19948;-69
2022/04/26 13:32:11;;;;;;;;;;;19.20;99.90;;;;;;5033545;28;20014;-67
2022/04/26 13:34:37;;;;;;;;;;;18.90;99.90;;;;;;5017797;28;20312;-68
2022/04/26 13:37:07;;;;;;;;;;;18.60;99.90;;;;;;5018224;28;19982;-67
2022/04/26 13:39:35;;;;;;;;;;;18.30;99.90;;;;;;5016373;28;19952;-68
2022/04/26 13:42:02;;;;;;;;;;;17.80;99.90;;;;;;5020847;28;19925;-68
2022/04/26 13:44:29;;;;;;;;;;;17.10;99.90;;;;;;5020677;28;20384;-67
2022/04/26 13:46:57;;;;;;;;;;;16.20;99.90;;;;;;5019713;28;19933;-70
2022/04/26 13:49:24;;;;;;;;;;;15.10;99.90;;;;;;5021727;28;20016;-68
2022/04/26 13:51:51;;;;;;;;;;;14.00;99.90;;;;;;5019272;28;19933;-68
2022/04/26 13:54:17;;;;;;;;;;;13.20;99.90;;;;;;5021705;28;20070;-69
2022/04/26 13:56:49;;;;;;;;;;;12.70;99.90;;;;;;5032697;28;19929;-69
2022/04/26 13:59:16;;;;;;;;;;;12.30;99.90;;;;;;5020455;28;20028;-69
2022/04/26 14:01:42;;;;;;;;;;;12.10;99.90;;;;;;5019323;28;20383;-68
2022/04/26 14:04:09;;;;;;;;;;;12.00;99.90;;;;;;5018304;28;19925;-68
2022/04/26 14:06:35;;;;;;;;;;;11.90;99.90;;;;;;5021137;28;20375;-66
2022/04/26 14:09:02;;;;;;;;;;;11.70;99.90;;;;;;5025006;28;20020;-68
2022/04/26 14:11:28;;;;;;;;;;;11.60;99.90;;;;;;5023477;28;19925;-69
2022/04/26 14:22:08;;;;;;;;;;;10.90;99.90;;;;;;5021859;28;19927;-69
2022/04/26 14:24:35;;;;;;;;;;;10.70;99.90;;;;;;5023242;28;19932;-69
2022/04/26 14:27:02;;;;;;;;;;;10.70;99.90;;;;;;5025371;28;19925;-69
2022/04/26 14:29:30;;;;;;;;;;;10.60;99.90;;;;;;5024335;28;19980;-69
2022/04/26 14:31:56;;;;;;;;;;;10.50;99.90;;;;;;5029587;27;19993;-68
2022/04/26 14:34:23;;;;;;;;;;;10.40;99.90;;;;;;5023421;28;20293;-69
2022/04/26 14:36:49;;;;;;;;;;;10.30;99.90;;;;;;5023836;28;20072;-69
2022/04/26 14:39:16;;;;;;;;;;;10.20;99.90;;;;;;5024946;28;19933;-69
2022/04/26 14:41:43;;;;;;;;;;;10.10;99.90;;;;;;5022504;28;19937;-70
2022/04/26 14:44:09;;;;;;;;;;;10.20;99.90;;;;;;5023090;28;20315;-70
2022/04/26 14:46:37;;;;;;;;;;;10.30;99.90;;;;;;5022267;28;19933;-70
2022/04/26 14:49:06;;;;;;;;;;;10.30;99.90;;;;;;5024313;28;19933;-70
2022/04/26 14:51:32;;;;;;;;;;;10.30;99.90;;;;;;5023308;28;19990;-70
2022/04/26 14:53:59;;;;;;;;;;;10.30;99.90;;;;;;5026564;28;19989;-70
2022/04/26 14:56:26;;;;;;;;;;;10.30;99.90;;;;;;5020045;28;19925;-70
2022/04/26 14:58:52;;;;;;;;;;;10.20;99.90;;;;;;5024273;28;20507;-70
2022/04/26 15:01:19;;;;;;;;;;;10.20;99.90;;;;;;5020725;28;19933;-70
2022/04/26 15:03:46;;;;;;;;;;;10.20;99.90;;;;;;5024941;28;19933;-70
2022/04/26 15:06:13;;;;;;;;;;;10.10;99.90;;;;;;5029677;28;19925;-70
2022/04/26 15:11:23;;;;;;;;;;;10.10;99.90;;;;;;4991440;28;19932;-70
2022/04/26 15:16:41;;;;;;;;;;;10.10;99.90;;;;;;5023116;28;19932;-70
2022/04/26 15:19:10;;;;;;;;;;;10.20;99.90;;;;;;5025609;28;19933;-69
2022/04/26 15:21:37;;;;;;;;;;;10.30;99.90;;;;;;5023583;27;19925;-69
2022/04/26 15:24:03;;;;;;;;;;;10.40;99.90;;;;;;5019542;28;20021;-69
2022/04/26 15:26:30;;;;;;;;;;;10.30;99.90;;;;;;5021692;28;19978;-69
2022/04/26 15:28:57;;;;;;;;;;;10.30;99.90;;;;;;5024872;28;19926;-70
2022/04/26 15:31:24;;;;;;;;;;;10.30;99.90;;;;;;5031164;28;19927;-69
2022/04/26 15:33:51;;;;;;;;;;;10.30;99.90;;;;;;5022907;28;19925;-69
2022/04/26 15:36:20;;;;;;;;;;;10.30;99.90;;;;;;5022509;28;20423;-69
2022/04/26 15:38:47;;;;;;;;;;;10.40;99.90;;;;;;5023141;28;19997;-69
2022/04/26 15:41:14;;;;;;;;;;;10.40;99.90;;;;;;5021212;28;19933;-69
2022/04/26 15:43:40;;;;;;;;;;;10.40;99.90;;;;;;5022534;28;19925;-69
2022/04/26 15:46:08;;;;;;;;;;;10.30;99.90;;;;;;5023738;28;20530;-69
2022/04/26 15:48:37;;;;;;;;;;;10.30;99.90;;;;;;5022467;28;19974;-69
2022/04/26 15:51:04;;;;;;;;;;;10.10;99.90;;;;;;5021163;28;19933;-69
2022/04/26 15:53:32;;;;;;;;;;;10.00;99.90;;;;;;5024307;28;20024;-69
2022/04/26 15:55:59;;;;;;;;;;;10.00;99.90;;;;;;5020526;28;19994;-69
2022/04/26 15:58:25;;;;;;;;;;;9.90;99.90;;;;;;5023867;28;19979;-69
2022/04/26 16:00:55;;;;;;;;;;;10.00;99.90;;;;;;5022371;28;19925;-69
2022/04/26 16:03:21;;;;;;;;;;;10.10;99.90;;;;;;5023323;28;19925;-69
2022/04/26 16:05:48;;;;;;;;;;;10.10;99.90;;;;;;5022516;28;19949;-69
2022/04/26 16:08:15;;;;;;;;;;;10.10;99.90;;;;;;5021119;28;19929;-70
2022/04/26 16:21:40;;;;;;;;;;;10.30;99.90;;;;;;5023088;28;19982;-69
2022/04/26 16:24:06;;;;;;;;;;;10.30;99.90;;;;;;5023866;28;19976;-70
2022/04/26 16:26:35;;;;;;;;;;;10.30;99.90;;;;;;5022083;28;19933;-69
2022/04/26 16:29:03;;;;;;;;;;;10.20;99.90;;;;;;5022729;28;19933;-70
2022/04/26 16:31:30;;;;;;;;;;;10.20;99.90;;;;;;5028122;28;19955;-70
2022/04/26 16:33:57;;;;;;;;;;;10.20;99.90;;;;;;5022846;28;19978;-70
2022/04/26 16:36:25;;;;;;;;;;;10.00;99.90;;;;;;5020886;28;19933;-70
2022/04/26 16:38:52;;;;;;;;;;;9.90;99.90;;;;;;5021423;28;19926;-69
2022/04/26 16:41:19;;;;;;;;;;;9.90;99.90;;;;;;5019245;28;20009;-69
2022/04/26 16:43:47;;;;;;;;;;;9.90;99.90;;;;;;5018594;28;20009;-69
2022/04/26 16:46:15;;;;;;;;;;;9.90;99.90;;;;;;5020557;28;20174;-69
2022/04/26 16:48:42;;;;;;;;;;;9.90;99.90;;;;;;5015719;28;19990;-70
2022/04/26 16:51:09;;;;;;;;;;;9.90;99.90;;;;;;5014618;28;19925;-69
2022/04/26 16:53:35;;;;;;;;;;;9.90;99.90;;;;;;5021696;28;20049;-70
2022/04/26 16:56:03;;;;;;;;;;;10.00;99.90;;;;;;5021589;28;20369;-70
2022/04/26 16:58:29;;;;;;;;;;;10.00;99.90;;;;;;5020863;28;19925;-70
2022/04/26 17:00:58;;;;;;;;;;;9.90;99.90;;;;;;5020274;28;19929;-70
2022/04/26 17:03:24;;;;;;;;;;;10.00;99.90;;;;;;5018549;28;20677;-70
2022/04/26 17:05:51;;;;;;;;;;;10.00;99.90;;;;;;5019453;28;20005;-71
2022/04/26 17:08:18;;;;;;;;;;;9.90;99.90;;;;;;5019574;28;19978;-71
2022/04/26 17:10:45;;;;;;;;;;;9.90;99.90;;;;;;5018248;28;19929;-71
2022/04/26 17:13:12;;;;;;;;;;;9.90;99.90;;;;;;5021870;28;19925;-71
2022/04/26 17:15:39;;;;;;;;;;;10.00;99.90;;;;;;5019137;28;19950;-70
2022/04/26 17:18:08;;;;;;;;;;;10.00;99.90;;;;;;5022167;28;20016;-71
2022/04/26 17:20:35;;;;;;;;;;;10.00;99.90;;;;;;5021644;28;19980;-72
2022/04/26 17:23:01;;;;;;;;;;;10.10;99.90;;;;;;5018219;28;20629;-70
2022/04/26 17:25:28;;;;;;;;;;;10.10;99.90;;;;;;5017902;28;19925;-70
2022/04/26 17:27:55;;;;;;;;;;;10.20;99.90;;;;;;5018553;27;19925;-71
2022/04/26 17:30:22;;;;;;;;;;;10.20;99.90;;;;;;5048031;22;19924;-71
2022/04/26 17:32:48;;;;;;;;;;;10.20;99.90;;;;;;5078958;28;20416;-71
2022/04/26 17:35:17;;;;;;;;;;;10.30;99.90;;;;;;5074306;28;19981;-72
2022/04/26 17:37:44;;;;;;;;;;;10.40;99.90;;;;;;5082277;28;20011;-72
2022/04/26 17:40:11;;;;;;;;;;;10.50;99.90;;;;;;5082286;28;19959;-70
2022/04/26 17:42:38;;;;;;;;;;;10.50;99.90;;;;;;5086525;28;19928;-71
2022/04/26 17:45:05;;;;;;;;;;;10.60;99.90;;;;;;5084881;28;20298;-70
2022/04/26 17:47:33;;;;;;;;;;;10.70;99.90;;;;;;5088915;28;20390;-70
2022/04/26 17:50:00;;;;;;;;;;;10.70;99.90;;;;;;5089097;28;19964;-70
2022/04/26 17:52:29;;;;;;;;;;;10.80;99.90;;;;;;5078011;28;22496;-70
2022/04/26 17:57:41;;;;;;;;;;;10.80;99.90;;;;;;5075113;28;20073;-70
2022/04/26 18:00:09;;;;;;;;;;;10.80;99.90;;;;;;5081582;28;19981;-69
2022/04/26 18:02:36;;;;;;;;;;;10.70;99.90;;;;;;5084425;28;19974;-69
2022/04/26 18:05:02;;;;;;;;;;;10.80;99.90;;;;;;5086719;28;20432;-69
2022/04/26 18:07:30;;;;;;;;;;;10.80;99.90;;;;;;5086168;28;19932;-69
2022/04/26 18:09:56;;;;;;;;;;;10.70;99.90;;;;;;5084788;28;19992;-68
2022/04/26 18:12:23;;;;;;;;;;;10.70;99.90;;;;;;5086477;28;19928;-68
2022/04/26 18:14:50;;;;;;;;;;;10.70;99.90;;;;;;5086924;28;19924;-70
2022/04/26 18:17:16;;;;;;;;;;;10.70;99.90;;;;;;5087802;28;19925;-70
2022/04/26 18:19:43;;;;;;;;;;;10.60;99.90;;;;;;5088549;28;19924;-69
2022/04/26 18:22:09;;;;;;;;;;;10.60;99.90;;;;;;5089879;28;19940;-69
2022/04/26 18:24:37;;;;;;;;;;;10.60;99.90;;;;;;5096923;28;20352;-69
2022/04/26 18:27:04;;;;;;;;;;;10.60;99.90;;;;;;5103257;28;19932;-68
2022/04/26 18:29:32;;;;;;;;;;;10.60;99.90;;;;;;5108085;28;19950;-70
2022/04/26 18:31:58;;;;;;;;;;;10.60;99.90;;;;;;5093727;28;19990;-70
2022/04/26 18:34:25;;;;;;;;;;;10.60;99.90;;;;;;5085126;28;19932;-70
2022/04/26 18:36:52;;;;;;;;;;;10.60;99.90;;;;;;5088873;28;19924;-67
2022/04/26 18:39:20;;;;;;;;;;;10.60;99.90;;;;;;5083855;28;19928;-69
2022/04/26 18:41:48;;;;;;;;;;;10.50;99.90;;;;;;5081509;28;19946;-69
2022/04/26 18:44:17;;;;;;;;;;;10.50;99.90;;;;;;5085222;28;19928;-73
2022/04/26 18:46:44;;;;;;;;;;;10.50;99.90;;;;;;5081868;28;19928;-71
2022/04/26 18:49:11;;;;;;;;;;;10.50;99.90;;;;;;5083003;28;19923;-69
2022/04/26 18:51:39;;;;;;;;;;;10.50;99.90;;;;;;5083618;28;20386;-70